createdAt,value
2022-08-16T00:00:04.283Z,9.10
2022-08-16T00:02:13.021Z,9.35
2022-08-16T00:04:16.918Z,8.80
2022-08-16T00:06:20.931Z,8.25
2022-08-16T00:08:36.200Z,8.07
2022-08-16T00:10:41.494Z,8.35
2022-08-16T00:12:45.970Z,8.20
2022-08-16T00:14:49.725Z,9.98
2022-08-16T00:17:00.528Z,8.40
2022-08-16T00:19:18.610Z,7.10
2022-08-16T00:21:22.632Z,7.22
2022-08-16T00:23:34.534Z,7.15
2022-08-16T00:26:34.304Z,7.70
2022-08-16T00:28:09.046Z,7.15
2022-08-16T00:30:19.798Z,6.68
2022-08-16T00:32:33.088Z,7.50
2022-08-16T00:34:43.465Z,7.05
2022-08-16T00:36:49.629Z,7.18
2022-08-16T00:38:59.432Z,7.32
2022-08-16T00:41:05.951Z,7.05
2022-08-16T00:43:19.197Z,6.60
2022-08-16T00:47:49.608Z,6.47
2022-08-16T00:49:56.613Z,7.40
2022-08-16T00:52:00.880Z,6.65
2022-08-16T00:54:06.342Z,6.80
2022-08-16T00:56:55.978Z,6.65
2022-08-16T00:58:40.933Z,7.43
2022-08-16T01:00:53.944Z,6.75
2022-08-16T01:02:58.560Z,7.13
2022-08-16T01:05:09.692Z,6.72
2022-08-16T01:07:17.520Z,8.30
2022-08-16T01:09:22.837Z,7.50
2022-08-16T01:11:27.932Z,7.40
2022-08-16T01:13:36.156Z,7.70
2022-08-16T01:15:44.619Z,7.97
2022-08-16T01:17:56.037Z,7.30
2022-08-16T01:20:24.207Z,7.20
2022-08-16T01:22:47.147Z,6.93
2022-08-16T01:27:05.476Z,7.00
2022-08-16T01:29:14.048Z,6.70
2022-08-16T01:31:20.020Z,7.93
2022-08-16T01:33:35.830Z,7.35
2022-08-16T01:35:43.431Z,7.13
2022-08-16T01:37:54.114Z,7.13
2022-08-16T01:40:02.947Z,7.30
2022-08-16T01:42:13.215Z,7.53
2022-08-16T01:44:18.614Z,7.22
2022-08-16T01:46:37.424Z,7.70
2022-08-16T01:49:01.368Z,7.47
2022-08-16T01:51:09.391Z,7.05
2022-08-16T01:53:20.919Z,7.93
2022-08-16T01:55:41.505Z,6.93
2022-08-16T01:57:53.592Z,7.15
2022-08-16T02:00:00.305Z,6.85
2022-08-16T02:02:27.134Z,6.43
2022-08-16T02:04:48.258Z,6.35
2022-08-16T02:06:55.688Z,6.63
2022-08-16T02:08:59.695Z,7.05
2022-08-16T02:11:08.704Z,6.50
2022-08-16T02:13:12.941Z,6.47
2022-08-16T02:15:25.330Z,7.15
2022-08-16T02:17:29.599Z,6.93
2022-08-16T02:19:59.330Z,6.82
2022-08-16T02:22:08.745Z,6.22
2022-08-16T02:24:32.833Z,7.28
2022-08-16T02:26:46.576Z,6.93
2022-08-16T02:28:54.328Z,6.95
2022-08-16T02:31:00.300Z,6.75
2022-08-16T02:33:04.909Z,6.20
2022-08-16T02:35:10.131Z,6.80
2022-08-16T02:37:16.455Z,6.38
2022-08-16T02:39:26.073Z,6.60
2022-08-16T02:41:37.387Z,6.65
2022-08-16T02:43:44.553Z,6.82
2022-08-16T02:45:48.625Z,6.65
2022-08-16T02:48:01.087Z,6.47
2022-08-16T02:50:54.697Z,6.65
2022-08-16T02:54:48.247Z,7.20
2022-08-16T02:57:00.110Z,6.53
2022-08-16T02:59:11.685Z,6.57
2022-08-16T03:01:25.103Z,6.82
2022-08-16T03:04:41.263Z,5.97
2022-08-16T03:06:38.940Z,5.68
2022-08-16T03:08:51.754Z,4.35
2022-08-16T03:10:59.360Z,4.90
2022-08-16T03:13:03.556Z,4.65
2022-08-16T03:15:17.982Z,5.25
2022-08-16T03:17:21.924Z,5.50
2022-08-16T03:19:48.357Z,4.63
2022-08-16T03:21:58.137Z,3.97
2022-08-16T03:24:03.119Z,4.25
2022-08-16T03:26:07.177Z,4.30
2022-08-16T03:28:11.245Z,4.38
2022-08-16T03:30:21.143Z,3.80
2022-08-16T03:32:35.022Z,4.13
2022-08-16T03:34:39.494Z,3.05
2022-08-16T03:36:43.237Z,3.63
2022-08-16T03:38:47.394Z,3.47
2022-08-16T03:40:52.928Z,3.78
2022-08-16T03:43:18.433Z,3.35
2022-08-16T03:45:27.353Z,3.72
2022-08-16T03:47:35.387Z,3.40
2022-08-16T03:49:41.114Z,4.20
2022-08-16T03:51:47.500Z,4.07
2022-08-16T03:54:01.330Z,3.50
2022-08-16T03:56:19.695Z,4.32
2022-08-16T03:58:25.936Z,2.67
2022-08-16T04:00:35.929Z,3.38
2022-08-16T04:02:49.375Z,3.35
2022-08-16T04:04:55.338Z,2.88
2022-08-16T04:07:00.877Z,3.10
2022-08-16T04:09:07.605Z,3.03
2022-08-16T04:11:17.304Z,2.83
2022-08-16T04:13:59.150Z,3.08
2022-08-16T04:15:48.198Z,3.10
2022-08-16T04:18:02.172Z,3.35
2022-08-16T04:20:24.060Z,3.00
2022-08-16T04:22:33.690Z,3.10
2022-08-16T04:24:39.447Z,2.92
2022-08-16T04:26:46.074Z,3.60
2022-08-16T04:29:14.729Z,3.00
2022-08-16T04:31:16.954Z,3.22
2022-08-16T04:33:27.499Z,2.95
2022-08-16T04:35:34.522Z,3.08
2022-08-16T04:37:42.354Z,3.65
2022-08-16T04:40:11.803Z,2.95
2022-08-16T04:42:26.136Z,3.75
2022-08-16T04:44:53.936Z,3.10
2022-08-16T04:47:03.227Z,3.65
2022-08-16T04:49:22.930Z,2.90
2022-08-16T04:51:26.691Z,3.20
2022-08-16T04:53:41.515Z,3.35
2022-08-16T04:55:46.033Z,3.05
2022-08-16T04:57:58.088Z,3.30
2022-08-16T05:00:30.377Z,3.17
2022-08-16T05:02:42.335Z,3.17
2022-08-16T05:04:46.915Z,3.13
2022-08-16T05:06:50.634Z,3.38
2022-08-16T05:11:20.451Z,2.85
2022-08-16T05:13:39.805Z,3.25
2022-08-16T05:15:45.100Z,3.95
2022-08-16T05:17:55.538Z,3.30
2022-08-16T05:20:38.822Z,3.17
2022-08-16T05:22:30.343Z,3.40
2022-08-16T05:24:38.155Z,3.08
2022-08-16T05:26:51.393Z,3.15
2022-08-16T05:28:57.866Z,3.33
2022-08-16T05:31:02.002Z,4.05
2022-08-16T05:33:16.723Z,3.72
2022-08-16T05:35:24.493Z,3.53
2022-08-16T05:38:03.527Z,3.08
2022-08-16T05:40:27.411Z,3.30
2022-08-16T05:42:47.763Z,3.45
2022-08-16T05:44:53.699Z,3.53
2022-08-16T05:47:00.609Z,3.17
2022-08-16T05:49:09.303Z,4.95
2022-08-16T05:51:37.590Z,3.35
2022-08-16T05:53:40.467Z,3.30
2022-08-16T05:55:48.117Z,3.25
2022-08-16T05:57:52.487Z,3.92
2022-08-16T05:59:59.996Z,3.35
2022-08-16T06:02:16.130Z,3.30
2022-08-16T06:04:36.554Z,2.80
2022-08-16T06:06:56.204Z,3.33
2022-08-16T06:09:02.250Z,3.08
2022-08-16T06:11:10.519Z,4.03
2022-08-16T06:13:15.812Z,3.30
2022-08-16T06:15:23.042Z,3.15
2022-08-16T06:17:41.739Z,3.85
2022-08-16T06:19:48.814Z,3.45
2022-08-16T06:21:56.094Z,3.40
2022-08-16T06:24:01.183Z,2.92
2022-08-16T06:26:09.766Z,2.60
2022-08-16T06:28:35.657Z,3.03
2022-08-16T06:32:51.017Z,2.80
2022-08-16T06:35:02.661Z,3.08
2022-08-16T06:37:09.458Z,3.03
2022-08-16T06:39:14.844Z,2.53
2022-08-16T06:41:39.411Z,2.85
2022-08-16T06:43:47.774Z,2.83
2022-08-16T06:45:59.311Z,2.90
2022-08-16T06:48:07.309Z,2.72
2022-08-16T06:50:22.028Z,2.83
2022-08-16T06:52:59.923Z,3.00
2022-08-16T06:55:00.066Z,2.42
2022-08-16T06:57:03.939Z,2.65
2022-08-16T06:59:09.286Z,3.55
2022-08-16T07:01:44.303Z,2.80
2022-08-16T07:03:55.403Z,2.97
2022-08-16T07:06:06.867Z,2.65
2022-08-16T07:08:19.378Z,2.75
2022-08-16T07:10:25.726Z,2.97
2022-08-16T07:12:46.893Z,2.97
2022-08-16T07:14:51.017Z,2.40
2022-08-16T07:16:59.035Z,2.42
2022-08-16T07:19:04.205Z,2.67
2022-08-16T07:21:15.594Z,3.05
2022-08-16T07:23:19.619Z,2.83
2022-08-16T07:25:28.596Z,2.50
2022-08-16T07:27:33.580Z,2.90
2022-08-16T07:29:41.546Z,2.55
2022-08-16T07:31:46.278Z,2.72
2022-08-16T07:33:55.011Z,2.60
2022-08-16T07:36:05.870Z,2.45
2022-08-16T07:38:19.919Z,2.70
2022-08-16T07:40:56.314Z,2.95
2022-08-16T07:42:53.642Z,2.85
2022-08-16T07:44:58.149Z,2.75
2022-08-16T07:47:02.175Z,2.67
2022-08-16T07:49:11.352Z,2.75
2022-08-16T07:51:17.745Z,2.40
2022-08-16T07:53:23.234Z,2.45
2022-08-16T07:55:27.655Z,2.38
2022-08-16T07:57:36.283Z,2.20
2022-08-16T07:59:45.604Z,2.60
2022-08-16T08:01:53.121Z,2.03
2022-08-16T08:03:59.723Z,3.00
2022-08-16T08:06:11.931Z,2.35
2022-08-16T08:08:50.934Z,2.53
2022-08-16T08:12:47.572Z,2.88
2022-08-16T08:14:51.868Z,2.42
2022-08-16T08:16:55.662Z,2.95
2022-08-16T08:19:12.553Z,2.70
2022-08-16T08:21:26.309Z,3.70
2022-08-16T08:23:44.314Z,2.67
2022-08-16T08:25:54.895Z,2.85
2022-08-16T08:28:03.014Z,2.42
2022-08-16T08:30:49.058Z,2.25
2022-08-16T08:32:58.397Z,2.50
2022-08-16T08:35:03.270Z,3.05
2022-08-16T08:37:09.295Z,2.53
2022-08-16T08:39:15.601Z,2.80
2022-08-16T08:41:29.080Z,2.78
2022-08-16T08:43:41.363Z,2.47
2022-08-16T08:45:48.487Z,2.53
2022-08-16T08:47:58.448Z,2.70
2022-08-16T08:50:08.043Z,2.63
2022-08-16T08:52:13.562Z,2.70
2022-08-16T08:54:37.457Z,2.92
2022-08-16T08:56:45.436Z,2.95
2022-08-16T08:59:13.287Z,2.65
2022-08-16T09:01:31.970Z,2.53
2022-08-16T09:03:41.883Z,2.65
2022-08-16T09:05:49.630Z,2.70
2022-08-16T09:08:01.986Z,2.25
2022-08-16T09:10:33.833Z,2.10
2022-08-16T09:12:46.574Z,2.67
2022-08-16T09:14:58.960Z,2.95
2022-08-16T09:17:21.624Z,3.08
2022-08-16T09:19:32.185Z,2.78
2022-08-16T09:21:38.393Z,2.95
2022-08-16T09:23:43.589Z,2.78
2022-08-16T09:25:51.701Z,2.80
2022-08-16T09:28:02.762Z,2.63
2022-08-16T09:30:34.294Z,2.88
2022-08-16T09:32:39.558Z,2.72
2022-08-16T09:34:51.387Z,2.75
2022-08-16T09:36:58.205Z,2.97
2022-08-16T09:39:04.288Z,2.95
2022-08-16T09:41:15.003Z,2.88
2022-08-16T09:43:58.301Z,2.65
2022-08-16T09:45:48.263Z,2.80
2022-08-16T09:47:56.255Z,3.00
2022-08-16T09:50:01.597Z,3.20
2022-08-16T09:52:06.350Z,3.00
2022-08-16T09:54:17.217Z,2.90
2022-08-16T09:56:28.736Z,2.55
2022-08-16T09:58:40.701Z,2.70
2022-08-16T10:01:00.999Z,2.53
2022-08-16T10:03:06.017Z,2.85
2022-08-16T10:05:12.985Z,2.83
2022-08-16T10:07:18.453Z,3.22
2022-08-16T10:09:23.798Z,2.90
2022-08-16T10:11:50.559Z,2.65
2022-08-16T10:13:56.554Z,2.58
2022-08-16T10:16:03.019Z,2.78
2022-08-16T10:18:56.228Z,2.65
2022-08-16T10:20:35.530Z,2.70
2022-08-16T10:22:41.575Z,3.00
2022-08-16T10:24:55.951Z,2.55
2022-08-16T10:27:26.365Z,2.53
2022-08-16T10:31:53.719Z,2.28
2022-08-16T10:33:57.895Z,2.65
2022-08-16T10:36:04.175Z,2.67
2022-08-16T10:38:09.595Z,2.60
2022-08-16T10:40:31.280Z,3.00
2022-08-16T10:42:35.312Z,2.78
2022-08-16T10:44:42.517Z,2.95
2022-08-16T10:46:46.219Z,3.28
2022-08-16T10:48:50.349Z,2.58
2022-08-16T10:50:59.036Z,2.75
2022-08-16T10:53:07.496Z,2.65
2022-08-16T10:57:36.975Z,2.55
2022-08-16T10:59:54.475Z,3.15
2022-08-16T11:05:05.532Z,2.83
2022-08-16T11:09:25.786Z,2.85
2022-08-16T11:11:33.499Z,2.92
2022-08-16T11:16:25.287Z,3.00
2022-08-16T11:19:02.896Z,3.03
2022-08-16T11:20:53.001Z,2.72
2022-08-16T11:22:56.955Z,2.90
2022-08-16T11:26:07.113Z,2.88
2022-08-16T11:29:39.702Z,3.13
2022-08-16T11:31:53.927Z,3.00
2022-08-16T11:33:57.966Z,2.60
2022-08-16T11:38:51.137Z,3.10
2022-08-16T11:40:53.168Z,2.85
2022-08-16T11:42:57.222Z,3.10
2022-08-16T11:45:01.066Z,3.10
2022-08-16T11:47:07.498Z,2.63
2022-08-16T11:49:13.683Z,2.85
2022-08-16T11:51:18.395Z,3.00
2022-08-16T11:53:24.468Z,2.90
2022-08-16T11:55:28.229Z,2.67
2022-08-16T11:57:32.191Z,2.97
2022-08-16T11:59:36.643Z,2.78
2022-08-16T12:01:55.298Z,3.13
2022-08-16T12:04:05.285Z,3.20
2022-08-16T12:06:24.995Z,3.22
2022-08-16T12:08:33.912Z,2.75
2022-08-16T12:10:39.750Z,3.35
2022-08-16T12:12:44.730Z,2.88
2022-08-16T12:14:52.242Z,2.70
2022-08-16T12:17:00.271Z,2.80
2022-08-16T12:19:10.581Z,3.13
2022-08-16T12:21:17.563Z,3.10
2022-08-16T12:23:23.668Z,3.22
2022-08-16T12:25:30.100Z,2.90
2022-08-16T12:27:33.687Z,2.80
2022-08-16T12:29:41.284Z,3.55
2022-08-16T12:32:00.630Z,2.85
2022-08-16T12:34:10.303Z,2.90
2022-08-16T12:36:23.848Z,2.97
2022-08-16T12:38:41.716Z,3.50
2022-08-16T12:43:02.148Z,2.80
2022-08-16T12:45:11.579Z,2.55
2022-08-16T12:47:38.208Z,2.53
2022-08-16T12:49:43.864Z,2.90
2022-08-16T12:51:58.060Z,2.80
2022-08-16T12:54:07.602Z,3.17
2022-08-16T12:56:13.257Z,3.20
2022-08-16T12:58:49.202Z,3.10
2022-08-16T13:00:42.123Z,2.78
2022-08-16T13:02:46.851Z,2.70
2022-08-16T13:04:52.146Z,2.50
2022-08-16T13:06:59.785Z,2.85
2022-08-16T13:09:18.544Z,3.15
2022-08-16T13:11:31.128Z,2.60
2022-08-16T13:13:35.650Z,2.92
2022-08-16T13:15:55.699Z,2.70
2022-08-16T13:18:23.951Z,2.72
2022-08-16T13:20:30.646Z,2.85
2022-08-16T13:22:34.640Z,3.00
2022-08-16T13:24:38.677Z,3.05
2022-08-16T13:26:42.502Z,2.70
2022-08-16T13:28:47.949Z,3.08
2022-08-16T13:30:54.825Z,3.10
2022-08-16T13:32:59.397Z,2.72
2022-08-16T13:35:04.923Z,2.85
2022-08-16T13:37:10.843Z,2.80
2022-08-16T13:39:14.747Z,3.30
2022-08-16T13:41:19.746Z,3.25
2022-08-16T13:43:23.612Z,2.78
2022-08-16T13:45:28.239Z,2.83
2022-08-16T13:47:40.064Z,3.10
2022-08-16T13:49:46.843Z,2.88
2022-08-16T13:51:50.875Z,2.55
2022-08-16T13:54:02.701Z,2.85
2022-08-16T13:56:07.345Z,2.43
2022-08-16T13:58:37.334Z,2.72
2022-08-16T14:00:38.455Z,2.78
2022-08-16T14:02:43.479Z,2.63
2022-08-16T14:04:47.549Z,2.45
2022-08-16T14:07:10.704Z,2.58
2022-08-16T14:09:15.933Z,2.33
2022-08-16T14:11:24.697Z,2.90
2022-08-16T14:13:28.758Z,3.00
2022-08-16T14:15:33.465Z,2.42
2022-08-16T14:18:17.451Z,2.80
2022-08-16T14:20:03.223Z,2.78
2022-08-16T14:22:15.224Z,2.75
2022-08-16T14:24:36.675Z,2.35
2022-08-16T14:26:41.721Z,2.97
2022-08-16T14:28:50.811Z,2.55
2022-08-16T14:30:57.045Z,2.95
2022-08-16T14:33:01.567Z,2.35
2022-08-16T14:35:09.149Z,3.20
2022-08-16T14:37:13.337Z,2.65
2022-08-16T14:39:17.265Z,4.38
2022-08-16T14:41:22.532Z,3.25
2022-08-16T14:43:29.704Z,3.88
2022-08-16T14:45:34.691Z,3.22
2022-08-16T14:47:38.917Z,3.13
2022-08-16T14:49:44.008Z,3.88
2022-08-16T14:51:49.068Z,3.22
2022-08-16T14:53:52.902Z,3.38
2022-08-16T14:55:57.463Z,3.88
2022-08-16T14:58:04.589Z,2.97
2022-08-16T15:00:12.714Z,3.55
2022-08-16T15:02:33.818Z,3.20
2022-08-16T15:04:40.003Z,3.17
2022-08-16T15:06:52.819Z,3.83
2022-08-16T15:08:59.390Z,2.85
2022-08-16T15:11:03.959Z,3.33
2022-08-16T15:13:10.925Z,3.33
2022-08-16T15:15:20.513Z,3.50
2022-08-16T15:17:34.067Z,3.47
2022-08-16T15:19:41.415Z,2.92
2022-08-16T15:21:45.085Z,3.15
2022-08-16T15:23:49.528Z,3.17
2022-08-16T15:26:02.564Z,3.00
2022-08-16T15:28:30.792Z,3.20
2022-08-16T15:30:56.869Z,3.17
2022-08-16T15:33:04.743Z,3.00
2022-08-16T15:35:10.531Z,3.13
2022-08-16T15:37:17.064Z,3.33
2022-08-16T15:39:30.136Z,3.72
2022-08-16T15:42:07.046Z,3.92
2022-08-16T15:44:22.422Z,3.03
2022-08-16T15:46:34.937Z,2.65
2022-08-16T15:48:50.114Z,2.78
2022-08-16T15:51:00.416Z,2.30
2022-08-16T15:53:12.586Z,2.85
2022-08-16T15:55:31.095Z,2.47
2022-08-16T15:57:41.339Z,2.85
2022-08-16T15:59:55.549Z,2.50
2022-08-16T16:02:01.011Z,2.35
2022-08-16T16:04:04.971Z,3.03
2022-08-16T16:06:12.356Z,2.53
2022-08-16T16:08:24.005Z,2.42
2022-08-16T16:10:29.783Z,2.97
2022-08-16T16:12:50.990Z,2.60
2022-08-16T16:14:59.599Z,3.97
2022-08-16T16:17:05.704Z,2.60
2022-08-16T16:19:09.555Z,2.75
2022-08-16T16:21:20.577Z,2.85
2022-08-16T16:23:28.114Z,3.80
2022-08-16T16:25:34.428Z,3.83
2022-08-16T16:27:38.726Z,3.00
2022-08-16T16:29:46.155Z,2.67
2022-08-16T16:31:59.830Z,3.28
2022-08-16T16:34:05.536Z,2.50
2022-08-16T16:36:16.132Z,3.10
2022-08-16T16:38:20.382Z,2.78
2022-08-16T16:40:31.340Z,2.85
2022-08-16T16:42:44.322Z,2.95
2022-08-16T16:44:51.070Z,3.05
2022-08-16T16:46:57.828Z,3.05
2022-08-16T16:49:04.103Z,2.63
2022-08-16T16:51:10.344Z,2.80
2022-08-16T16:53:17.076Z,2.95
2022-08-16T16:55:22.063Z,2.50
2022-08-16T16:57:46.713Z,2.63
2022-08-16T16:59:55.622Z,2.80
2022-08-16T17:02:41.843Z,3.15
2022-08-16T17:04:32.402Z,3.80
2022-08-16T17:06:37.347Z,3.05
2022-08-16T17:08:42.107Z,2.83
2022-08-16T17:10:49.057Z,3.10
2022-08-16T17:12:56.591Z,3.13
2022-08-16T17:15:00.811Z,3.13
2022-08-16T17:17:09.379Z,3.15
2022-08-16T17:19:16.902Z,3.45
2022-08-16T17:21:26.395Z,3.25
2022-08-16T17:23:59.583Z,3.47
2022-08-16T17:25:58.724Z,3.33
2022-08-16T17:28:59.721Z,3.33
2022-08-16T17:30:45.017Z,3.65
2022-08-16T17:32:54.582Z,3.53
2022-08-16T17:35:00.443Z,4.53
2022-08-16T17:37:08.069Z,6.00
2022-08-16T17:39:12.528Z,7.13
2022-08-16T17:41:18.981Z,3.85
2022-08-16T17:43:26.089Z,3.83
2022-08-16T17:45:30.300Z,3.83
2022-08-16T17:47:34.244Z,3.72
2022-08-16T17:49:39.496Z,3.28
2022-08-16T17:51:43.391Z,4.30
2022-08-16T17:53:50.432Z,3.63
2022-08-16T17:55:55.979Z,4.30
2022-08-16T17:58:00.715Z,4.13
2022-08-16T18:00:20.099Z,4.32
2022-08-16T18:02:44.476Z,3.92
2022-08-16T18:04:50.442Z,3.83
2022-08-16T18:06:54.353Z,3.50
2022-08-16T18:09:03.775Z,4.25
2022-08-16T18:11:10.526Z,4.18
2022-08-16T18:13:16.611Z,4.15
2022-08-16T18:15:21.569Z,4.72
2022-08-16T18:17:25.592Z,4.18
2022-08-16T18:19:29.354Z,3.90
2022-08-16T18:21:51.878Z,4.10
2022-08-16T18:23:55.491Z,4.65
2022-08-16T18:26:02.183Z,4.30
2022-08-16T18:28:05.949Z,4.47
2022-08-16T18:30:10.661Z,3.90
2022-08-16T18:32:15.255Z,4.32
2022-08-16T18:34:25.840Z,4.10
2022-08-16T18:36:29.690Z,4.63
2022-08-16T18:38:38.165Z,4.43
2022-08-16T18:40:42.906Z,4.80
2022-08-16T18:42:58.247Z,9.88
2022-08-16T18:45:05.154Z,6.30
2022-08-16T18:47:09.314Z,4.43
2022-08-16T18:49:17.807Z,4.47
2022-08-16T18:51:25.152Z,4.25
2022-08-16T18:53:29.762Z,4.05
2022-08-16T18:55:36.119Z,4.20
2022-08-16T18:57:50.684Z,4.43
2022-08-16T18:59:54.509Z,4.35
2022-08-16T19:02:04.942Z,3.90
2022-08-16T19:04:50.524Z,4.50
2022-08-16T19:08:36.459Z,3.60
2022-08-16T19:10:43.646Z,4.40
2022-08-16T19:12:48.530Z,4.35
2022-08-16T19:14:52.387Z,5.18
2022-08-16T19:16:56.396Z,7.55
2022-08-16T19:19:00.113Z,4.78
2022-08-16T19:21:03.732Z,4.80
2022-08-16T19:23:13.575Z,4.35
2022-08-16T19:25:19.318Z,4.30
2022-08-16T19:27:24.308Z,3.88
2022-08-16T19:29:35.907Z,4.00
2022-08-16T19:31:39.505Z,4.40
2022-08-16T19:33:53.320Z,5.80
2022-08-16T19:35:57.745Z,4.55
2022-08-16T19:38:01.549Z,5.97
2022-08-16T19:40:06.575Z,7.32
2022-08-16T19:42:31.533Z,4.40
2022-08-16T19:44:35.292Z,4.28
2022-08-16T19:46:41.797Z,4.60
2022-08-16T19:48:46.029Z,5.05
2022-08-16T19:50:49.644Z,4.75
2022-08-16T19:52:53.273Z,5.18
2022-08-16T19:55:01.068Z,5.55
2022-08-16T19:57:05.523Z,5.50
2022-08-16T19:59:20.408Z,5.30
2022-08-16T20:01:25.584Z,5.20
2022-08-16T20:03:29.133Z,5.68
2022-08-16T20:05:35.397Z,5.22
2022-08-16T20:07:38.982Z,5.20
2022-08-16T20:09:44.413Z,5.90
2022-08-16T20:11:49.290Z,5.05
2022-08-16T20:13:52.898Z,4.90
2022-08-16T20:15:58.042Z,5.40
2022-08-16T20:18:01.935Z,5.32
2022-08-16T20:20:06.661Z,5.03
2022-08-16T20:22:49.754Z,5.18
2022-08-16T20:24:48.566Z,5.50
2022-08-16T20:26:52.112Z,5.18
2022-08-16T20:28:56.050Z,4.80
2022-08-16T20:31:01.295Z,4.55
2022-08-16T20:33:10.764Z,4.95
2022-08-16T20:35:20.109Z,4.88
2022-08-16T20:37:24.202Z,5.55
2022-08-16T20:39:28.039Z,4.78
2022-08-16T20:41:33.085Z,5.13
2022-08-16T20:43:37.144Z,5.47
2022-08-16T20:45:43.114Z,5.80
2022-08-16T20:47:48.157Z,4.90
2022-08-16T20:49:54.743Z,4.85
2022-08-16T20:51:59.758Z,5.38
2022-08-16T20:54:03.686Z,5.07
2022-08-16T20:56:08.175Z,4.28
2022-08-16T20:58:12.559Z,4.45
2022-08-16T21:00:18.177Z,4.32
2022-08-16T21:02:26.729Z,4.80
2022-08-16T21:04:32.121Z,4.85
2022-08-16T21:06:38.535Z,4.28
2022-08-16T21:08:52.337Z,3.95
2022-08-16T21:10:58.695Z,4.43
2022-08-16T21:13:04.145Z,4.28
2022-08-16T21:15:09.277Z,3.97
2022-08-16T21:17:16.328Z,3.80
2022-08-16T21:19:20.442Z,5.55
2022-08-16T21:21:32.038Z,4.95
2022-08-16T21:23:37.480Z,3.10
2022-08-16T21:25:51.203Z,3.80
2022-08-16T21:28:40.447Z,3.65
2022-08-16T21:30:32.347Z,3.65
2022-08-16T21:32:36.439Z,3.33
2022-08-16T21:34:41.616Z,3.58
2022-08-16T21:36:46.708Z,4.47
2022-08-16T21:38:50.386Z,3.70
2022-08-16T21:40:54.252Z,4.38
2022-08-16T21:43:07.808Z,4.43
2022-08-16T21:45:15.031Z,3.72
2022-08-16T21:47:19.008Z,3.72
2022-08-16T21:49:22.597Z,3.60
2022-08-16T21:51:26.223Z,3.17
2022-08-16T21:53:31.544Z,3.42
2022-08-16T21:55:35.204Z,3.55
2022-08-16T21:57:38.944Z,3.38
2022-08-16T21:59:42.760Z,3.50
2022-08-16T22:01:46.944Z,4.38
2022-08-16T22:04:35.885Z,3.90
2022-08-16T22:06:14.802Z,3.95
2022-08-16T22:08:19.802Z,4.07
2022-08-16T22:11:07.869Z,4.03
2022-08-16T22:12:49.596Z,3.83
2022-08-16T22:14:53.866Z,3.97
2022-08-16T22:16:57.446Z,3.92
2022-08-16T22:19:01.119Z,3.75
2022-08-16T22:21:04.831Z,7.72
2022-08-16T22:23:11.060Z,4.45
2022-08-16T22:25:16.350Z,4.13
2022-08-16T22:27:21.512Z,3.80
2022-08-16T22:29:25.943Z,4.32
2022-08-16T22:31:29.940Z,3.90
2022-08-16T22:33:33.590Z,4.00
2022-08-16T22:35:42.637Z,4.43
2022-08-16T22:38:50.599Z,4.10
2022-08-16T22:42:14.036Z,4.43
2022-08-16T22:44:19.590Z,3.40
2022-08-16T22:46:23.286Z,4.30
2022-08-16T22:48:26.880Z,4.18
2022-08-16T22:50:31.630Z,4.07
2022-08-16T22:52:48.887Z,3.80
2022-08-16T22:55:02.881Z,3.70
2022-08-16T22:57:07.935Z,3.80
2022-08-16T22:59:11.835Z,3.65
2022-08-16T23:01:18.473Z,4.05
2022-08-16T23:03:22.565Z,4.18
2022-08-16T23:05:28.511Z,4.13
2022-08-16T23:07:31.962Z,4.43
2022-08-16T23:09:35.548Z,3.90
2022-08-16T23:11:39.530Z,5.05
2022-08-16T23:13:53.076Z,4.50
2022-08-16T23:16:00.994Z,4.05
2022-08-16T23:18:07.565Z,4.13
2022-08-16T23:20:12.280Z,4.35
2022-08-16T23:22:16.150Z,4.13
2022-08-16T23:24:21.386Z,4.45
2022-08-16T23:26:46.315Z,4.35
2022-08-16T23:30:52.076Z,3.67
2022-08-16T23:32:59.795Z,4.43
2022-08-16T23:35:05.882Z,4.43
2022-08-16T23:37:10.686Z,3.97
2022-08-16T23:39:14.260Z,4.93
2022-08-16T23:41:18.036Z,4.35
2022-08-16T23:43:23.527Z,4.68
2022-08-16T23:45:28.567Z,4.43
2022-08-16T23:47:32.219Z,4.80
2022-08-16T23:49:58.371Z,5.22
2022-08-16T23:52:08.168Z,4.25
2022-08-16T23:54:12.024Z,5.47
2022-08-16T23:56:19.354Z,4.40
2022-08-16T23:58:25.217Z,4.80
